createdAt,value
2019-05-02T00:01:42.253Z,81.60
2019-05-02T00:04:12.390Z,81.70
2019-05-02T00:06:44.198Z,81.90
2019-05-02T00:09:13.323Z,82.00
2019-05-02T00:11:42.481Z,82.20
2019-05-02T00:14:12.009Z,82.40
2019-05-02T00:16:45.210Z,82.50
2019-05-02T00:19:13.932Z,82.60
2019-05-02T00:22:02.136Z,82.80
2019-05-02T00:24:33.862Z,82.80
2019-05-02T00:27:03.220Z,83.00
2019-05-02T00:29:32.355Z,83.10
2019-05-02T00:32:01.453Z,83.20
2019-05-02T00:34:30.609Z,83.40
2019-05-02T00:36:59.769Z,83.40
2019-05-02T00:39:28.789Z,83.70
2019-05-02T00:41:57.926Z,83.70
2019-05-02T00:44:26.995Z,83.80
2019-05-02T00:46:57.669Z,83.90
2019-05-02T00:49:30.785Z,83.90
2019-05-02T00:52:01.336Z,84.00
2019-05-02T00:54:28.140Z,84.00
2019-05-02T00:56:58.630Z,84.10
2019-05-02T00:59:27.585Z,84.10
2019-05-02T01:02:15.667Z,84.10
2019-05-02T01:04:46.666Z,84.10
2019-05-02T01:07:15.792Z,84.30
2019-05-02T01:09:46.829Z,84.10
2019-05-02T01:12:25.816Z,84.30
2019-05-02T01:14:46.355Z,84.40
2019-05-02T01:17:15.434Z,84.60
2019-05-02T01:19:47.166Z,84.80
2019-05-02T01:22:16.219Z,84.90
2019-05-02T01:24:46.269Z,85.00
2019-05-02T01:27:27.102Z,85.10
2019-05-02T01:30:18.934Z,85.20
2019-05-02T01:32:55.404Z,85.30
2019-05-02T01:35:32.734Z,85.30
2019-05-02T01:38:26.467Z,85.30
2019-05-02T01:40:54.893Z,85.30
2019-05-02T01:43:25.762Z,85.30
2019-05-02T01:45:54.880Z,85.20
2019-05-02T01:48:23.921Z,85.20
2019-05-02T01:50:52.980Z,85.20
2019-05-02T01:53:21.932Z,85.40
2019-05-02T01:55:52.082Z,85.40
2019-05-02T01:58:22.885Z,85.60
2019-05-02T02:00:52.006Z,85.70
2019-05-02T02:03:21.102Z,85.90
2019-05-02T02:05:50.142Z,85.90
2019-05-02T02:08:19.166Z,86.00
2019-05-02T02:10:50.697Z,86.00
2019-05-02T02:13:18.925Z,86.00
2019-05-02T02:15:48.383Z,86.10
2019-05-02T02:18:22.275Z,86.20
2019-05-02T02:20:58.571Z,86.30
2019-05-02T02:23:49.730Z,86.50
2019-05-02T02:26:17.729Z,86.60
2019-05-02T02:28:46.709Z,86.70
2019-05-02T02:31:15.881Z,86.80
2019-05-02T02:33:48.120Z,86.90
2019-05-02T02:36:15.557Z,87.00
2019-05-02T02:38:44.607Z,87.10
2019-05-02T02:41:15.042Z,87.20
2019-05-02T02:43:46.124Z,87.40
2019-05-02T02:46:23.358Z,87.40
2019-05-02T02:48:52.433Z,87.40
2019-05-02T02:51:24.685Z,87.50
2019-05-02T02:54:02.832Z,87.60
2019-05-02T02:56:22.962Z,87.70
2019-05-02T02:58:51.992Z,87.90
2019-05-02T03:01:28.845Z,87.90
2019-05-02T03:03:51.787Z,87.90
2019-05-02T03:06:20.849Z,87.90
2019-05-02T03:08:49.876Z,88.00
2019-05-02T03:11:23.510Z,88.10
2019-05-02T03:14:13.121Z,88.10
2019-05-02T03:16:46.884Z,88.00
2019-05-02T03:19:14.533Z,88.20
2019-05-02T03:21:54.472Z,88.10
2019-05-02T03:24:24.813Z,88.00
2019-05-02T03:26:55.247Z,88.10
2019-05-02T03:29:24.719Z,88.20
2019-05-02T03:32:11.738Z,88.30
2019-05-02T03:34:44.896Z,88.40
2019-05-02T03:37:03.218Z,88.50
2019-05-02T03:39:26.330Z,88.50
2019-05-02T03:42:02.770Z,88.50
2019-05-02T03:44:27.406Z,88.80
2019-05-02T03:47:02.200Z,88.80
2019-05-02T03:49:48.568Z,88.90
2019-05-02T03:52:17.018Z,89.00
2019-05-02T03:54:49.948Z,89.00
2019-05-02T03:57:16.807Z,89.10
2019-05-02T03:59:47.230Z,89.20
2019-05-02T04:02:20.266Z,89.30
2019-05-02T04:04:47.064Z,89.40
2019-05-02T04:07:16.178Z,89.30
2019-05-02T04:09:45.207Z,89.40
2019-05-02T04:12:21.951Z,89.40
2019-05-02T04:14:44.977Z,89.50
2019-05-02T04:17:14.066Z,89.60
2019-05-02T04:19:43.244Z,89.60
2019-05-02T04:22:12.568Z,89.80
2019-05-02T04:24:47.945Z,90.00
2019-05-02T04:27:15.115Z,90.00
2019-05-02T04:29:44.272Z,90.00
2019-05-02T04:32:14.470Z,90.10
2019-05-02T04:34:48.902Z,90.20
2019-05-02T04:37:14.689Z,90.20
2019-05-02T04:39:49.085Z,90.20
2019-05-02T04:42:22.751Z,90.30
2019-05-02T04:45:12.079Z,90.30
2019-05-02T04:47:21.821Z,90.40
2019-05-02T04:49:52.043Z,90.40
2019-05-02T04:52:21.501Z,90.40
2019-05-02T04:54:50.653Z,90.40
2019-05-02T04:57:19.651Z,90.50
2019-05-02T04:59:50.461Z,90.60
2019-05-02T05:02:21.328Z,90.60
2019-05-02T05:04:52.227Z,90.70
2019-05-02T05:07:21.282Z,90.70
2019-05-02T05:09:58.254Z,90.80
2019-05-02T05:12:21.125Z,90.80
2019-05-02T05:14:50.248Z,90.80
2019-05-02T05:17:20.019Z,91.00
2019-05-02T05:19:49.326Z,91.00
2019-05-02T05:22:18.624Z,91.00
2019-05-02T05:24:53.510Z,91.10
2019-05-02T05:27:23.117Z,91.10
2019-05-02T05:29:53.702Z,91.20
2019-05-02T05:32:22.938Z,91.40
2019-05-02T05:35:12.893Z,91.20
2019-05-02T05:37:43.312Z,91.20
2019-05-02T05:40:12.678Z,91.30
2019-05-02T05:42:41.663Z,91.30
2019-05-02T05:45:13.860Z,91.20
2019-05-02T05:47:41.374Z,91.20
2019-05-02T05:50:10.387Z,91.20
2019-05-02T05:52:42.345Z,91.20
2019-05-02T05:55:12.841Z,91.30
2019-05-02T05:57:40.929Z,91.20
2019-05-02T06:00:15.908Z,91.20
2019-05-02T06:02:52.789Z,91.30
2019-05-02T06:05:11.796Z,91.30
2019-05-02T06:07:43.945Z,91.30
2019-05-02T06:10:12.665Z,91.40
2019-05-02T06:12:41.698Z,91.40
2019-05-02T06:15:10.759Z,91.40
2019-05-02T06:17:39.881Z,91.50
2019-05-02T06:20:08.880Z,91.50
2019-05-02T06:22:37.985Z,91.50
2019-05-02T06:25:09.301Z,91.60
2019-05-02T06:27:38.193Z,91.50
2019-05-02T06:30:07.366Z,91.60
2019-05-02T06:32:36.410Z,91.60
2019-05-02T06:35:05.495Z,92.00
2019-05-02T06:37:34.617Z,91.60
2019-05-02T06:40:08.113Z,91.60
2019-05-02T06:42:34.923Z,91.60
2019-05-02T06:45:06.099Z,91.60
2019-05-02T06:47:36.054Z,91.60
2019-05-02T06:50:06.112Z,91.60
2019-05-02T06:52:37.779Z,91.60
2019-05-02T06:55:06.862Z,91.60
2019-05-02T06:57:36.031Z,91.60
2019-05-02T07:00:06.549Z,91.50
2019-05-02T07:02:35.899Z,91.60
2019-05-02T07:05:05.155Z,91.50
2019-05-02T07:07:36.992Z,91.40
2019-05-02T07:10:07.344Z,91.30
2019-05-02T07:12:36.400Z,91.20
2019-05-02T07:15:09.185Z,91.20
2019-05-02T07:17:40.777Z,91.10
2019-05-02T07:20:10.350Z,91.00
2019-05-02T07:22:40.860Z,90.80
2019-05-02T07:25:10.083Z,90.60
2019-05-02T07:27:39.397Z,90.40
2019-05-02T07:30:08.582Z,90.20
2019-05-02T07:32:37.631Z,90.10
2019-05-02T07:35:06.670Z,90.30
2019-05-02T07:37:35.713Z,89.80
2019-05-02T07:40:05.251Z,89.50
2019-05-02T07:42:36.819Z,89.40
2019-05-02T07:45:09.303Z,89.10
2019-05-02T07:47:40.101Z,89.00
2019-05-02T07:50:10.531Z,88.90
2019-05-02T07:52:41.080Z,88.80
2019-05-02T07:55:10.155Z,88.60
2019-05-02T07:57:39.380Z,88.50
2019-05-02T08:00:09.362Z,88.40
2019-05-02T08:02:38.410Z,88.10
2019-05-02T08:05:08.974Z,88.00
2019-05-02T08:07:38.204Z,87.70
2019-05-02T08:10:07.234Z,87.50
2019-05-02T08:12:36.275Z,87.40
2019-05-02T08:15:07.505Z,87.20
2019-05-02T08:17:36.744Z,87.00
2019-05-02T08:20:08.490Z,86.90
2019-05-02T08:22:36.867Z,86.80
2019-05-02T08:25:10.341Z,86.60
2019-05-02T08:27:51.011Z,86.60
2019-05-02T08:30:23.991Z,86.40
2019-05-02T08:32:53.022Z,86.30
2019-05-02T08:35:22.154Z,86.30
2019-05-02T08:37:51.239Z,86.20
2019-05-02T08:40:20.303Z,87.00
2019-05-02T08:42:49.401Z,86.10
2019-05-02T08:45:18.477Z,86.10
2019-05-02T08:47:47.511Z,86.10
2019-05-02T08:50:16.738Z,86.00
2019-05-02T08:52:48.032Z,85.90
2019-05-02T08:55:16.462Z,85.90
2019-05-02T08:57:45.484Z,85.90
2019-05-02T09:00:14.605Z,85.90
2019-05-02T09:02:43.739Z,85.90
2019-05-02T09:05:12.753Z,85.80
2019-05-02T09:07:42.996Z,85.10
2019-05-02T09:10:12.484Z,85.80
2019-05-02T09:12:45.284Z,85.90
2019-05-02T09:15:12.334Z,85.90
2019-05-02T09:17:44.637Z,85.90
2019-05-02T09:20:16.612Z,86.00
2019-05-02T09:22:46.493Z,85.90
2019-05-02T09:25:15.957Z,85.90
2019-05-02T09:27:45.105Z,85.90
2019-05-02T09:30:17.092Z,85.90
2019-05-02T09:32:44.897Z,85.70
2019-05-02T09:35:13.975Z,85.60
2019-05-02T09:37:43.060Z,85.40
2019-05-02T09:40:16.563Z,85.40
2019-05-02T09:42:43.176Z,85.30
2019-05-02T09:45:19.267Z,85.10
2019-05-02T09:47:58.265Z,84.90
2019-05-02T09:50:29.402Z,84.80
2019-05-02T09:52:49.926Z,84.60
2019-05-02T09:55:19.020Z,84.50
2019-05-02T09:57:48.067Z,84.40
2019-05-02T10:00:32.150Z,84.30
2019-05-02T10:03:02.708Z,84.10
2019-05-02T10:05:32.227Z,84.00
2019-05-02T10:08:03.134Z,83.90
2019-05-02T10:10:32.439Z,83.80
2019-05-02T10:13:02.807Z,83.80
2019-05-02T10:15:32.742Z,84.20
2019-05-02T10:18:10.589Z,83.60
2019-05-02T10:20:36.401Z,83.50
2019-05-02T10:23:05.212Z,84.10
2019-05-02T10:25:38.630Z,83.30
2019-05-02T10:28:06.579Z,83.20
2019-05-02T10:30:56.625Z,83.10
2019-05-02T10:33:27.917Z,83.10
2019-05-02T10:35:56.425Z,83.00
2019-05-02T10:38:25.526Z,83.00
2019-05-02T10:41:01.285Z,83.10
2019-05-02T10:43:25.292Z,83.10
2019-05-02T10:46:01.434Z,83.10
2019-05-02T10:48:33.006Z,82.90
2019-05-02T10:51:29.222Z,82.80
2019-05-02T10:53:58.290Z,82.80
2019-05-02T10:56:27.329Z,82.80
2019-05-02T10:58:56.355Z,82.70
2019-05-02T11:01:27.068Z,82.60
2019-05-02T11:03:57.630Z,82.50
2019-05-02T11:06:26.618Z,82.50
2019-05-02T11:08:55.598Z,82.60
2019-05-02T11:11:24.821Z,82.60
2019-05-02T11:14:25.168Z,82.50
2019-05-02T11:17:08.696Z,82.50
2019-05-02T11:19:52.362Z,82.60
2019-05-02T11:22:22.764Z,83.30
2019-05-02T11:24:52.467Z,82.90
2019-05-02T11:27:22.094Z,83.10
2019-05-02T11:29:52.710Z,83.50
2019-05-02T11:32:22.166Z,83.80
2019-05-02T11:34:52.444Z,83.90
2019-05-02T11:37:22.649Z,83.90
2019-05-02T11:39:59.556Z,84.90
2019-05-02T11:42:27.193Z,84.10
2019-05-02T11:44:54.499Z,84.30
2019-05-02T11:47:26.617Z,84.30
2019-05-02T11:49:56.021Z,84.40
2019-05-02T11:52:44.288Z,84.40
2019-05-02T11:55:13.270Z,84.40
2019-05-02T11:57:42.715Z,84.40
2019-05-02T12:00:12.379Z,84.40
2019-05-02T12:02:58.867Z,84.30
2019-05-02T12:05:44.653Z,84.40
2019-05-02T12:08:13.386Z,84.20
2019-05-02T12:10:42.516Z,84.00
2019-05-02T12:13:15.747Z,84.10
2019-05-02T12:15:44.330Z,84.00
2019-05-02T12:18:13.103Z,84.00
2019-05-02T12:20:42.715Z,84.00
2019-05-02T12:23:12.946Z,84.00
2019-05-02T12:25:42.414Z,83.70
2019-05-02T12:28:12.071Z,83.50
2019-05-02T12:30:42.530Z,83.50
2019-05-02T12:33:12.405Z,83.40
2019-05-02T12:35:43.194Z,83.20
2019-05-02T12:38:13.865Z,83.10
2019-05-02T12:40:45.920Z,83.00
2019-05-02T12:43:14.936Z,83.00
2019-05-02T12:45:43.981Z,82.90
2019-05-02T12:48:13.173Z,82.90
2019-05-02T12:50:42.250Z,82.90
2019-05-02T12:53:12.601Z,83.00
2019-05-02T12:55:42.721Z,82.90
2019-05-02T12:58:12.491Z,82.80
2019-05-02T13:00:43.066Z,82.70
2019-05-02T13:03:31.819Z,82.50
2019-05-02T13:06:03.016Z,82.40
2019-05-02T13:08:32.367Z,82.30
2019-05-02T13:11:22.207Z,82.30
2019-05-02T13:13:53.308Z,82.20
2019-05-02T13:16:23.849Z,82.20
2019-05-02T13:18:57.258Z,82.10
2019-05-02T13:21:39.251Z,81.90
2019-05-02T13:24:30.113Z,81.70
2019-05-02T13:27:01.033Z,81.50
2019-05-02T13:29:32.026Z,81.30
2019-05-02T13:32:18.945Z,81.30
2019-05-02T13:35:09.896Z,81.10
2019-05-02T13:37:39.046Z,81.00
2019-05-02T13:40:17.087Z,80.60
2019-05-02T13:42:46.354Z,80.30
2019-05-02T13:45:32.382Z,80.10
2019-05-02T13:48:02.790Z,79.80
2019-05-02T13:50:31.986Z,79.50
2019-05-02T13:53:02.678Z,79.20
2019-05-02T13:55:36.365Z,78.90
2019-05-02T13:58:05.378Z,78.80
2019-05-02T14:00:46.130Z,78.50
2019-05-02T14:03:15.178Z,78.20
2019-05-02T14:05:50.652Z,78.00
2019-05-02T14:08:35.486Z,77.60
2019-05-02T14:11:21.534Z,77.50
2019-05-02T14:13:52.153Z,77.20
2019-05-02T14:16:22.245Z,77.00
2019-05-02T14:18:53.013Z,76.80
2019-05-02T14:21:22.442Z,76.50
2019-05-02T14:23:51.938Z,76.30
2019-05-02T14:26:29.761Z,75.90
2019-05-02T14:28:53.225Z,75.60
2019-05-02T14:31:22.404Z,75.20
2019-05-02T14:34:08.946Z,75.00
2019-05-02T14:36:38.106Z,74.70
2019-05-02T14:39:07.828Z,74.10
2019-05-02T14:41:41.200Z,73.50
2019-05-02T14:44:07.707Z,72.80
2019-05-02T14:46:39.460Z,72.30
2019-05-02T14:49:07.669Z,71.90
2019-05-02T14:51:36.959Z,71.40
2019-05-02T14:54:08.419Z,70.70
2019-05-02T14:56:48.789Z,70.10
2019-05-02T14:59:19.918Z,69.50
2019-05-02T15:01:52.744Z,68.90
2019-05-02T15:04:22.641Z,68.40
2019-05-02T15:06:52.989Z,68.00
2019-05-02T15:09:26.599Z,67.60
2019-05-02T15:11:58.617Z,67.20
2019-05-02T15:14:32.855Z,66.90
2019-05-02T15:17:03.770Z,66.30
2019-05-02T15:19:33.314Z,65.90
2019-05-02T15:22:02.567Z,65.70
2019-05-02T15:24:36.168Z,65.30
2019-05-02T15:27:11.357Z,64.70
2019-05-02T15:29:33.405Z,64.10
2019-05-02T15:32:12.649Z,63.50
2019-05-02T15:35:17.592Z,62.80
2019-05-02T15:37:46.634Z,62.00
2019-05-02T15:42:56.590Z,60.90
2019-05-02T15:45:24.375Z,60.40
2019-05-02T15:47:53.455Z,60.10
2019-05-02T15:50:25.617Z,59.70
2019-05-02T15:53:03.112Z,59.50
2019-05-02T15:55:32.404Z,59.30
2019-05-02T15:58:02.253Z,58.90
2019-05-02T16:00:34.446Z,58.40
2019-05-02T16:03:04.539Z,57.70
2019-05-02T16:05:36.593Z,57.10
2019-05-02T16:08:08.208Z,56.50
2019-05-02T16:10:38.441Z,56.30
2019-05-02T16:13:08.789Z,56.90
2019-05-02T16:15:38.035Z,56.60
2019-05-02T16:18:06.987Z,56.80
2019-05-02T16:21:04.677Z,56.90
2019-05-02T16:23:32.686Z,57.00
2019-05-02T16:26:02.071Z,57.20
2019-05-02T16:28:32.332Z,57.20
2019-05-02T16:31:02.995Z,57.00
2019-05-02T16:33:32.085Z,56.90
2019-05-02T16:36:02.716Z,57.00
2019-05-02T16:38:34.896Z,57.10
2019-05-02T16:41:09.983Z,57.30
2019-05-02T16:43:33.320Z,57.50
2019-05-02T16:46:11.911Z,57.70
2019-05-02T16:48:39.171Z,57.90
2019-05-02T16:51:27.651Z,58.10
2019-05-02T16:53:38.991Z,58.40
2019-05-02T16:56:08.463Z,58.40
2019-05-02T16:58:38.108Z,58.60
2019-05-02T17:01:09.111Z,58.60
2019-05-02T17:03:38.183Z,58.80
2019-05-02T17:06:08.580Z,59.10
2019-05-02T17:09:14.729Z,59.30
2019-05-02T17:11:44.475Z,59.60
2019-05-02T17:14:13.612Z,59.90
2019-05-02T17:16:47.127Z,60.10
2019-05-02T17:19:13.453Z,60.40
2019-05-02T17:21:53.124Z,60.50
2019-05-02T17:24:17.427Z,60.80
2019-05-02T17:26:43.994Z,61.00
2019-05-02T17:29:16.570Z,61.30
2019-05-02T17:31:43.808Z,61.50
2019-05-02T17:34:14.863Z,61.70
2019-05-02T17:36:45.787Z,62.00
2019-05-02T17:39:14.485Z,62.30
2019-05-02T17:41:45.683Z,62.40
2019-05-02T17:44:18.513Z,62.60
2019-05-02T17:46:50.825Z,63.10
2019-05-02T17:49:18.248Z,63.10
2019-05-02T17:52:05.992Z,63.40
2019-05-02T17:54:35.986Z,63.70
2019-05-02T17:57:05.098Z,64.10
2019-05-02T17:59:37.737Z,64.50
2019-05-02T18:02:12.378Z,65.00
2019-05-02T18:04:37.694Z,65.50
2019-05-02T18:07:06.837Z,65.90
2019-05-02T18:09:35.935Z,66.20
2019-05-02T18:12:07.148Z,66.40
2019-05-02T18:14:35.793Z,66.60
2019-05-02T18:17:04.775Z,66.80
2019-05-02T18:19:33.766Z,67.00
2019-05-02T18:22:06.612Z,67.10
2019-05-02T18:24:37.329Z,67.30
2019-05-02T18:27:04.561Z,67.40
2019-05-02T18:29:36.232Z,67.60
2019-05-02T18:32:04.356Z,67.80
2019-05-02T18:34:33.427Z,67.90
2019-05-02T18:37:06.139Z,67.50
2019-05-02T18:39:34.867Z,68.10
2019-05-02T18:42:03.884Z,68.20
2019-05-02T18:44:32.924Z,68.50
2019-05-02T18:47:02.411Z,68.60
2019-05-02T18:49:32.114Z,68.70
2019-05-02T18:52:01.778Z,68.70
2019-05-02T18:54:31.037Z,68.90
2019-05-02T18:57:00.077Z,69.10
2019-05-02T18:59:29.075Z,69.30
2019-05-02T19:01:59.582Z,69.50
2019-05-02T19:04:34.984Z,69.60
2019-05-02T19:06:59.620Z,69.80
2019-05-02T19:09:33.060Z,70.10
2019-05-02T19:12:07.570Z,70.40
2019-05-02T19:14:35.306Z,70.70
2019-05-02T19:17:07.331Z,70.80
2019-05-02T19:19:36.836Z,70.90
2019-05-02T19:22:07.449Z,71.00
2019-05-02T19:24:36.838Z,71.00
2019-05-02T19:27:06.366Z,71.00
2019-05-02T19:29:39.162Z,71.00
2019-05-02T19:32:12.218Z,71.00
2019-05-02T19:35:03.264Z,71.00
2019-05-02T19:37:46.070Z,71.00
2019-05-02T19:40:10.100Z,71.00
2019-05-02T19:42:39.257Z,70.90
2019-05-02T19:45:15.245Z,71.00
2019-05-02T19:47:42.012Z,71.10
2019-05-02T19:50:36.707Z,71.30
2019-05-02T19:53:04.481Z,71.40
2019-05-02T19:55:33.739Z,71.40
2019-05-02T19:58:06.429Z,71.40
2019-05-02T20:00:36.653Z,71.50
2019-05-02T20:03:04.589Z,71.70
2019-05-02T20:05:33.734Z,71.70
2019-05-02T20:08:02.790Z,71.90
2019-05-02T20:10:32.296Z,71.90
2019-05-02T20:13:03.094Z,71.90
2019-05-02T20:15:34.018Z,72.00
2019-05-02T20:18:04.756Z,72.10
2019-05-02T20:20:40.701Z,72.30
2019-05-02T20:23:17.920Z,72.40
2019-05-02T20:25:42.675Z,72.50
2019-05-02T20:28:13.020Z,72.60
2019-05-02T20:30:42.209Z,72.80
2019-05-02T20:33:12.881Z,72.90
2019-05-02T20:35:42.229Z,72.90
2019-05-02T20:38:13.495Z,72.90
2019-05-02T20:40:42.619Z,72.90
2019-05-02T20:43:12.138Z,72.80
2019-05-02T20:45:41.245Z,72.90
2019-05-02T20:48:11.912Z,73.00
2019-05-02T20:50:42.402Z,72.90
2019-05-02T20:53:12.824Z,73.00
2019-05-02T20:55:42.467Z,73.10
2019-05-02T20:58:12.653Z,73.10
2019-05-02T21:00:42.670Z,73.20
2019-05-02T21:03:11.999Z,73.20
2019-05-02T21:05:54.247Z,73.70
2019-05-02T21:08:36.544Z,73.30
2019-05-02T21:11:05.605Z,73.40
2019-05-02T21:13:53.814Z,73.40
2019-05-02T21:16:29.421Z,73.40
2019-05-02T21:18:58.451Z,73.50
2019-05-02T21:21:27.571Z,73.40
2019-05-02T21:23:56.619Z,73.40
2019-05-02T21:26:25.691Z,73.40
2019-05-02T21:28:54.832Z,73.40
2019-05-02T21:31:23.980Z,73.40
2019-05-02T21:33:53.077Z,73.40
2019-05-02T21:36:22.682Z,73.40
2019-05-02T21:38:52.202Z,73.30
2019-05-02T21:41:22.187Z,73.20
2019-05-02T21:43:51.821Z,73.30
2019-05-02T21:46:22.315Z,73.20
2019-05-02T21:48:52.635Z,73.20
2019-05-02T21:51:46.927Z,73.10
2019-05-02T21:54:45.682Z,73.10
2019-05-02T21:57:17.339Z,73.10
2019-05-02T21:59:46.363Z,73.20
2019-05-02T22:02:15.709Z,73.10
2019-05-02T22:04:45.892Z,73.10
2019-05-02T22:07:15.010Z,73.30
2019-05-02T22:09:44.014Z,73.20
2019-05-02T22:12:13.158Z,73.30
2019-05-02T22:14:42.327Z,73.30
2019-05-02T22:17:12.699Z,73.40
2019-05-02T22:19:41.909Z,73.50
2019-05-02T22:22:12.252Z,73.60
2019-05-02T22:24:42.103Z,73.60
2019-05-02T22:27:12.371Z,73.80
2019-05-02T22:29:43.037Z,73.80
2019-05-02T22:32:12.437Z,73.80
2019-05-02T22:34:42.995Z,73.90
2019-05-02T22:37:13.929Z,74.00
2019-05-02T22:39:56.654Z,74.10
2019-05-02T22:42:25.784Z,74.20
2019-05-02T22:44:54.851Z,74.40
2019-05-02T22:47:23.948Z,74.50
2019-05-02T22:49:52.996Z,74.60
2019-05-02T22:52:22.116Z,74.70
2019-05-02T22:54:52.344Z,74.80
2019-05-02T22:57:22.615Z,75.70
2019-05-02T22:59:51.755Z,74.90
2019-05-02T23:02:21.953Z,75.00
2019-05-02T23:04:52.561Z,75.10
2019-05-02T23:07:22.265Z,75.20
2019-05-02T23:09:52.680Z,75.30
2019-05-02T23:12:22.568Z,75.40
2019-05-02T23:14:52.712Z,75.40
2019-05-02T23:17:23.201Z,75.50
2019-05-02T23:19:52.845Z,75.60
2019-05-02T23:22:22.332Z,75.70
2019-05-02T23:25:14.329Z,75.80
2019-05-02T23:27:47.767Z,76.00
2019-05-02T23:30:19.407Z,75.90
2019-05-02T23:32:48.447Z,75.90
2019-05-02T23:35:17.571Z,76.20
2019-05-02T23:37:47.808Z,76.20
2019-05-02T23:40:16.872Z,76.30
2019-05-02T23:42:45.976Z,76.30
2019-05-02T23:45:15.018Z,76.40
2019-05-02T23:47:44.045Z,76.40
2019-05-02T23:50:13.059Z,76.50
2019-05-02T23:52:42.199Z,76.60
2019-05-02T23:55:12.218Z,76.70
2019-05-02T23:57:42.025Z,76.70
